Palo Alto, CA

4:37 AM PDT en Mayo 26, 2015 (GMT -0700)
Palo Alto Of Santa Clara County | | Change Station
CLOSE
Current Station
Aeropuerto
Location: Palo Alto,
Altura: 7 ft
Estaciones meteorológicas cercanas

Alt 7 ft 37.46 °N, 122.12 °W | Updated 7 hours ago

Nublado
Nublado
55 ° F
Sensación térmica 55 ° F
N
5
Viento Variable Viento desde SO
Gusts mph

Hoy
Alta -- | Baja -- ° F
--% Posibilidad de precipitaciones
Ayer
Alta -- | Baja -- ° F
Precip. -- pul
5:51 AM 8:19 PM
Cuarto creciente, 57% visible
Presión 29.97 pul
Visibilidad 10.0 Millas
Nubes Nubes dispersas 2400 ft
Punto de rocío 50 ° F
Humedad 81%
Precipitaciones 0.00 pul
Espesor de la nieve No disponible.
UV 0 de una escala de 12
Polen 6.00 de una escala de 12
Calidad del aire No disponible.
Flu Activity Sporadic
METAR KPAO 260347Z 31004KT 10SM SCT024 15/11 A2997 RMK LAST

More Conditions Fewer Conditions

Presión 29.97 pul
Visibilidad 10.0 Millas
Nubes Nubes dispersas 2400 ft
Punto de rocío 50 ° F
Humedad 81%
Precipitaciones 0.00 pul
Espesor de la nieve No disponible.
UV 0 de una escala de 12
Polen 6.00 de una escala de 12
Calidad del aire No disponible.
Flu Activity Sporadic
METAR KPAO 260347Z 31004KT 10SM SCT024 15/11 A2997 RMK LAST

More Conditions Fewer Conditions

10-Day Weather Forecast

Almanac

Astronomía

May. 26, 2015 Salida Puesta
Hora real
Crepúsculo civil
Crepúsculo náutico
Crepúsculo astronómico
Luna
Horas de luz
Horas de luz
Tomorrow will be .
, % of the Moon is Illuminated

Extremos de hoy

Máximos del estado Bajos del estado

Community

WunderPhotos

Upload Photos

1,824,304 ¡fotos cargadas!

WunderBlogs® & News

Nearby

Calidad del aire

  Calidad del aire Índice AQ Contaminante
Not available.

Grosos de nieve

Estación Profundido Altura

Actividad de terremotos

Ciudad Distance Mag. Tiempo y dato
Magnitud mínima muestra es 2,5.

Temperaturas de aguas costeras

Lugar Temperatura

Stations

Estaciones meteorológicas cercanas

Ubicación de la estación Temp. Vientos helados Punto de rocío Humedad Viento Precip. Alt Actualizado Tipo